sensor_id;sensor_type;location;lat;lon;timestamp;pressure;altitude;pressure_sealevel;temperature;humidity
2397;BME280;1209;48.410;9.054;2023-01-19T00:00:41;95148.72;;;-1.16;100.00
2397;BME280;1209;48.410;9.054;2023-01-19T00:03:07;95142.25;;;-1.10;100.00
2397;BME280;1209;48.410;9.054;2023-01-19T00:05:40;95149.94;;;-1.10;100.00
2397;BME280;1209;48.410;9.054;2023-01-19T00:08:06;95139.41;;;-1.17;100.00
2397;BME280;1209;48.410;9.054;2023-01-19T00:10:43;95147.25;;;-1.09;100.00
2397;BME280;1209;48.410;9.054;2023-01-19T00:13:09;95142.53;;;-1.13;100.00
2397;BME280;1209;48.410;9.054;2023-01-19T00:15:34;95155.06;;;-1.10;100.00
2397;BME280;1209;48.410;9.054;2023-01-19T00:18:00;95151.56;;;-1.09;100.00
2397;BME280;1209;48.410;9.054;2023-01-19T00:20:25;95149.22;;;-1.32;100.00
2397;BME280;1209;48.410;9.054;2023-01-19T00:22:51;95151.50;;;-1.38;100.00
2397;BME280;1209;48.410;9.054;2023-01-19T00:25:16;95152.59;;;-1.31;100.00
2397;BME280;1209;48.410;9.054;2023-01-19T00:27:41;95161.50;;;-1.25;100.00
2397;BME280;1209;48.410;9.054;2023-01-19T00:30:14;95163.84;;;-1.43;100.00
2397;BME280;1209;48.410;9.054;2023-01-19T00:32:39;95156.75;;;-1.40;100.00
2397;BME280;1209;48.410;9.054;2023-01-19T00:35:05;95160.59;;;-1.45;100.00
2397;BME280;1209;48.410;9.054;2023-01-19T00:37:30;95157.06;;;-1.54;100.00
2397;BME280;1209;48.410;9.054;2023-01-19T00:39:55;95162.56;;;-1.59;100.00
2397;BME280;1209;48.410;9.054;2023-01-19T00:42:21;95161.13;;;-1.51;100.00
2397;BME280;1209;48.410;9.054;2023-01-19T00:45:08;95172.28;;;-1.52;100.00
2397;BME280;1209;48.410;9.054;2023-01-19T00:47:33;95167.13;;;-1.62;100.00
2397;BME280;1209;48.410;9.054;2023-01-19T00:49:59;95164.84;;;-1.65;100.00
2397;BME280;1209;48.410;9.054;2023-01-19T00:52:24;95159.47;;;-1.62;100.00
2397;BME280;1209;48.410;9.054;2023-01-19T00:54:49;95160.66;;;-1.66;100.00
2397;BME280;1209;48.410;9.054;2023-01-19T00:57:15;95162.34;;;-1.76;100.00
2397;BME280;1209;48.410;9.054;2023-01-19T00:59:41;95158.59;;;-1.72;100.00
2397;BME280;1209;48.410;9.054;2023-01-19T01:02:06;95159.38;;;-1.81;100.00
2397;BME280;1209;48.410;9.054;2023-01-19T01:04:33;95161.03;;;-1.71;100.00
2397;BME280;1209;48.410;9.054;2023-01-19T01:06:58;95163.72;;;-1.72;100.00
2397;BME280;1209;48.410;9.054;2023-01-19T01:09:23;95159.94;;;-1.78;100.00
2397;BME280;1209;48.410;9.054;2023-01-19T01:11:49;95158.88;;;-1.75;100.00
2397;BME280;1209;48.410;9.054;2023-01-19T01:14:14;95163.41;;;-1.79;100.00
2397;BME280;1209;48.410;9.054;2023-01-19T01:16:39;95169.91;;;-1.75;100.00
2397;BME280;1209;48.410;9.054;2023-01-19T01:19:05;95168.91;;;-1.83;100.00
2397;BME280;1209;48.410;9.054;2023-01-19T01:21:30;95175.56;;;-1.71;100.00
2397;BME280;1209;48.410;9.054;2023-01-19T01:23:56;95180.56;;;-1.70;100.00
2397;BME280;1209;48.410;9.054;2023-01-19T01:26:21;95179.25;;;-1.64;100.00
2397;BME280;1209;48.410;9.054;2023-01-19T01:28:46;95177.25;;;-1.61;100.00
2397;BME280;1209;48.410;9.054;2023-01-19T01:31:12;95170.22;;;-1.68;100.00
2397;BME280;1209;48.410;9.054;2023-01-19T01:33:37;95182.88;;;-1.67;100.00
2397;BME280;1209;48.410;9.054;2023-01-19T01:36:02;95170.06;;;-1.67;100.00
2397;BME280;1209;48.410;9.054;2023-01-19T01:38:28;95179.13;;;-1.63;100.00
2397;BME280;1209;48.410;9.054;2023-01-19T01:40:54;95176.59;;;-1.83;100.00
2397;BME280;1209;48.410;9.054;2023-01-19T01:43:19;95180.53;;;-1.79;100.00
2397;BME280;1209;48.410;9.054;2023-01-19T01:45:45;95179.97;;;-1.83;100.00
2397;BME280;1209;48.410;9.054;2023-01-19T01:48:26;95174.28;;;-1.86;100.00
2397;BME280;1209;48.410;9.054;2023-01-19T01:50:58;95175.22;;;-1.87;100.00
2397;BME280;1209;48.410;9.054;2023-01-19T01:53:44;95181.03;;;-1.85;100.00
2397;BME280;1209;48.410;9.054;2023-01-19T01:56:14;95178.91;;;-1.80;100.00
2397;BME280;1209;48.410;9.054;2023-01-19T01:58:42;95184.66;;;-1.88;100.00
2397;BME280;1209;48.410;9.054;2023-01-19T02:01:08;95190.50;;;-1.97;100.00
2397;BME280;1209;48.410;9.054;2023-01-19T02:03:52;95185.19;;;-2.26;100.00
2397;BME280;1209;48.410;9.054;2023-01-19T02:06:17;95178.03;;;-2.43;100.00
2397;BME280;1209;48.410;9.054;2023-01-19T02:08:45;95183.44;;;-2.05;100.00
2397;BME280;1209;48.410;9.054;2023-01-19T02:11:31;95179.38;;;-2.07;100.00
2397;BME280;1209;48.410;9.054;2023-01-19T02:14:15;95183.75;;;-1.98;100.00
2397;BME280;1209;48.410;9.054;2023-01-19T02:16:41;95183.69;;;-2.08;100.00
2397;BME280;1209;48.410;9.054;2023-01-19T02:19:07;95175.34;;;-2.10;100.00
2397;BME280;1209;48.410;9.054;2023-01-19T02:23:59;95179.81;;;-2.02;100.00
2397;BME280;1209;48.410;9.054;2023-01-19T02:26:34;95184.38;;;-2.06;100.00
2397;BME280;1209;48.410;9.054;2023-01-19T02:29:09;95182.06;;;-2.30;100.00
2397;BME280;1209;48.410;9.054;2023-01-19T02:31:36;95187.81;;;-2.16;100.00
2397;BME280;1209;48.410;9.054;2023-01-19T02:34:04;95187.69;;;-2.15;100.00
2397;BME280;1209;48.410;9.054;2023-01-19T02:36:35;95190.94;;;-2.13;100.00
2397;BME280;1209;48.410;9.054;2023-01-19T02:39:03;95183.44;;;-2.26;100.00
2397;BME280;1209;48.410;9.054;2023-01-19T02:41:33;95180.81;;;-2.35;100.00
2397;BME280;1209;48.410;9.054;2023-01-19T02:44:03;95188.69;;;-2.38;100.00
2397;BME280;1209;48.410;9.054;2023-01-19T02:46:29;95191.97;;;-2.36;100.00
2397;BME280;1209;48.410;9.054;2023-01-19T02:49:00;95186.16;;;-2.38;100.00
2397;BME280;1209;48.410;9.054;2023-01-19T02:51:26;95196.47;;;-2.29;100.00
2397;BME280;1209;48.410;9.054;2023-01-19T02:56:42;95194.63;;;-2.70;100.00
2397;BME280;1209;48.410;9.054;2023-01-19T02:59:24;95190.28;;;-3.01;100.00
2397;BME280;1209;48.410;9.054;2023-01-19T03:04:43;95191.88;;;-2.78;100.00
2397;BME280;1209;48.410;9.054;2023-01-19T03:10:16;95194.03;;;-2.62;100.00
2397;BME280;1209;48.410;9.054;2023-01-19T03:12:51;95197.88;;;-2.68;100.00
2397;BME280;1209;48.410;9.054;2023-01-19T03:15:22;95200.06;;;-2.63;100.00
2397;BME280;1209;48.410;9.054;2023-01-19T03:17:50;95208.06;;;-2.57;100.00
2397;BME280;1209;48.410;9.054;2023-01-19T03:20:21;95204.44;;;-2.54;100.00
2397;BME280;1209;48.410;9.054;2023-01-19T03:22:53;95202.19;;;-2.68;100.00
2397;BME280;1209;48.410;9.054;2023-01-19T03:25:21;95206.16;;;-2.75;100.00
2397;BME280;1209;48.410;9.054;2023-01-19T03:27:49;95204.44;;;-2.97;100.00
2397;BME280;1209;48.410;9.054;2023-01-19T03:30:27;95203.94;;;-2.91;100.00
2397;BME280;1209;48.410;9.054;2023-01-19T03:33:00;95196.06;;;-2.77;100.00
2397;BME280;1209;48.410;9.054;2023-01-19T03:35:30;95201.53;;;-3.04;100.00
2397;BME280;1209;48.410;9.054;2023-01-19T03:37:59;95194.88;;;-2.73;100.00
2397;BME280;1209;48.410;9.054;2023-01-19T03:40:29;95204.50;;;-2.65;100.00
2397;BME280;1209;48.410;9.054;2023-01-19T03:42:55;95199.91;;;-2.82;100.00
2397;BME280;1209;48.410;9.054;2023-01-19T03:45:21;95203.84;;;-2.90;100.00
2397;BME280;1209;48.410;9.054;2023-01-19T03:47:47;95204.75;;;-2.91;100.00
2397;BME280;1209;48.410;9.054;2023-01-19T03:50:21;95209.50;;;-2.75;100.00
2397;BME280;1209;48.410;9.054;2023-01-19T03:55:29;95209.34;;;-3.17;100.00
2397;BME280;1209;48.410;9.054;2023-01-19T03:57:55;95205.00;;;-2.94;100.00
2397;BME280;1209;48.410;9.054;2023-01-19T04:00:20;95211.84;;;-2.83;100.00
2397;BME280;1209;48.410;9.054;2023-01-19T04:02:45;95207.78;;;-2.97;100.00
2397;BME280;1209;48.410;9.054;2023-01-19T04:05:11;95201.84;;;-2.86;100.00
2397;BME280;1209;48.410;9.054;2023-01-19T04:07:36;95211.13;;;-2.74;100.00
2397;BME280;1209;48.410;9.054;2023-01-19T04:10:01;95205.88;;;-2.61;100.00
2397;BME280;1209;48.410;9.054;2023-01-19T04:12:26;95196.25;;;-2.69;100.00
2397;BME280;1209;48.410;9.054;2023-01-19T04:14:52;95207.53;;;-2.71;100.00
2397;BME280;1209;48.410;9.054;2023-01-19T04:17:17;95209.34;;;-2.62;100.00
2397;BME280;1209;48.410;9.054;2023-01-19T04:19:43;95208.59;;;-2.96;100.00
2397;BME280;1209;48.410;9.054;2023-01-19T04:22:09;95212.53;;;-2.92;100.00
2397;BME280;1209;48.410;9.054;2023-01-19T04:24:34;95209.09;;;-3.02;100.00
2397;BME280;1209;48.410;9.054;2023-01-19T04:26:59;95215.56;;;-2.98;100.00
2397;BME280;1209;48.410;9.054;2023-01-19T04:29:25;95215.22;;;-2.94;100.00
2397;BME280;1209;48.410;9.054;2023-01-19T04:31:50;95213.72;;;-3.07;100.00
2397;BME280;1209;48.410;9.054;2023-01-19T04:34:15;95209.50;;;-2.75;100.00
2397;BME280;1209;48.410;9.054;2023-01-19T04:36:41;95208.44;;;-2.61;100.00
2397;BME280;1209;48.410;9.054;2023-01-19T04:39:06;95213.81;;;-2.75;100.00
2397;BME280;1209;48.410;9.054;2023-01-19T04:41:33;95215.53;;;-2.65;100.00
2397;BME280;1209;48.410;9.054;2023-01-19T04:43:58;95216.84;;;-2.81;100.00
2397;BME280;1209;48.410;9.054;2023-01-19T04:46:24;95212.31;;;-2.78;100.00
2397;BME280;1209;48.410;9.054;2023-01-19T04:48:49;95213.34;;;-2.80;100.00
2397;BME280;1209;48.410;9.054;2023-01-19T04:51:15;95211.09;;;-2.63;100.00
2397;BME280;1209;48.410;9.054;2023-01-19T04:53:40;95217.13;;;-2.64;100.00
2397;BME280;1209;48.410;9.054;2023-01-19T04:56:05;95222.47;;;-2.56;100.00
2397;BME280;1209;48.410;9.054;2023-01-19T04:58:31;95220.22;;;-2.49;100.00
2397;BME280;1209;48.410;9.054;2023-01-19T05:00:56;95216.53;;;-2.56;100.00
2397;BME280;1209;48.410;9.054;2023-01-19T05:03:21;95220.47;;;-2.52;100.00
2397;BME280;1209;48.410;9.054;2023-01-19T05:05:47;95220.22;;;-2.49;100.00
2397;BME280;1209;48.410;9.054;2023-01-19T05:08:12;95223.75;;;-2.61;100.00
2397;BME280;1209;48.410;9.054;2023-01-19T05:10:37;95219.50;;;-2.72;100.00
2397;BME280;1209;48.410;9.054;2023-01-19T05:13:03;95224.78;;;-2.53;100.00
2397;BME280;1209;48.410;9.054;2023-01-19T05:15:29;95228.94;;;-2.51;100.00
2397;BME280;1209;48.410;9.054;2023-01-19T05:17:54;95225.97;;;-2.68;100.00
2397;BME280;1209;48.410;9.054;2023-01-19T05:20:22;95234.06;;;-2.51;100.00
2397;BME280;1209;48.410;9.054;2023-01-19T05:22:48;95234.50;;;-2.46;100.00
2397;BME280;1209;48.410;9.054;2023-01-19T05:25:14;95241.16;;;-2.55;100.00
2397;BME280;1209;48.410;9.054;2023-01-19T05:27:40;95240.72;;;-2.60;100.00
2397;BME280;1209;48.410;9.054;2023-01-19T05:30:05;95238.72;;;-2.57;100.00
2397;BME280;1209;48.410;9.054;2023-01-19T05:32:31;95249.38;;;-2.51;100.00
2397;BME280;1209;48.410;9.054;2023-01-19T05:34:56;95249.38;;;-2.51;100.00
2397;BME280;1209;48.410;9.054;2023-01-19T05:37:22;95236.63;;;-2.51;100.00
2397;BME280;1209;48.410;9.054;2023-01-19T05:39:47;95238.13;;;-2.49;100.00
2397;BME280;1209;48.410;9.054;2023-01-19T05:42:12;95244.47;;;-2.43;100.00
2397;BME280;1209;48.410;9.054;2023-01-19T05:44:38;95243.72;;;-2.55;100.00
2397;BME280;1209;48.410;9.054;2023-01-19T05:47:03;95245.25;;;-2.64;100.00
2397;BME280;1209;48.410;9.054;2023-01-19T05:49:29;95256.03;;;-2.60;100.00
2397;BME280;1209;48.410;9.054;2023-01-19T05:51:54;95250.84;;;-2.70;100.00
2397;BME280;1209;48.410;9.054;2023-01-19T05:54:20;95257.13;;;-2.74;100.00
2397;BME280;1209;48.410;9.054;2023-01-19T05:56:45;95245.94;;;-2.62;100.00
2397;BME280;1209;48.410;9.054;2023-01-19T05:59:10;95256.28;;;-2.63;100.00
2397;BME280;1209;48.410;9.054;2023-01-19T06:01:36;95264.75;;;-2.63;100.00
2397;BME280;1209;48.410;9.054;2023-01-19T06:04:03;95264.44;;;-2.80;100.00
2397;BME280;1209;48.410;9.054;2023-01-19T06:06:28;95276.28;;;-3.13;100.00
2397;BME280;1209;48.410;9.054;2023-01-19T06:08:54;95270.34;;;-2.91;100.00
2397;BME280;1209;48.410;9.054;2023-01-19T06:11:19;95271.84;;;-2.89;100.00
2397;BME280;1209;48.410;9.054;2023-01-19T06:13:45;95285.19;;;-2.85;100.00
2397;BME280;1209;48.410;9.054;2023-01-19T06:16:10;95282.41;;;-2.93;100.00
2397;BME280;1209;48.410;9.054;2023-01-19T06:18:36;95280.09;;;-2.85;100.00
2397;BME280;1209;48.410;9.054;2023-01-19T06:21:03;95280.44;;;-3.01;100.00
2397;BME280;1209;48.410;9.054;2023-01-19T06:23:30;95282.91;;;-3.10;100.00
2397;BME280;1209;48.410;9.054;2023-01-19T06:25:56;95280.81;;;-3.05;100.00
2397;BME280;1209;48.410;9.054;2023-01-19T06:28:22;95284.75;;;-3.01;100.00
2397;BME280;1209;48.410;9.054;2023-01-19T06:30:51;95297.63;;;-3.14;100.00
2397;BME280;1209;48.410;9.054;2023-01-19T06:33:17;95292.06;;;-3.19;100.00
2397;BME280;1209;48.410;9.054;2023-01-19T06:35:44;95294.03;;;-3.11;100.00
2397;BME280;1209;48.410;9.054;2023-01-19T06:38:09;95295.44;;;-3.07;100.00
2397;BME280;1209;48.410;9.054;2023-01-19T06:40:35;95299.94;;;-3.11;100.00
2397;BME280;1209;48.410;9.054;2023-01-19T06:43:00;95304.72;;;-3.18;100.00
2397;BME280;1209;48.410;9.054;2023-01-19T06:45:25;95301.47;;;-3.20;100.00
2397;BME280;1209;48.410;9.054;2023-01-19T06:47:50;95300.53;;;-3.19;100.00
2397;BME280;1209;48.410;9.054;2023-01-19T06:50:16;95304.94;;;-3.21;100.00
2397;BME280;1209;48.410;9.054;2023-01-19T06:52:41;95311.75;;;-3.32;100.00
2397;BME280;1209;48.410;9.054;2023-01-19T06:55:10;95310.34;;;-3.36;100.00
2397;BME280;1209;48.410;9.054;2023-01-19T06:57:37;95312.88;;;-3.59;100.00
2397;BME280;1209;48.410;9.054;2023-01-19T07:00:04;95319.25;;;-3.53;100.00
2397;BME280;1209;48.410;9.054;2023-01-19T07:02:35;95314.50;;;-3.46;100.00
2397;BME280;1209;48.410;9.054;2023-01-19T07:05:00;95319.16;;;-3.40;100.00
2397;BME280;1209;48.410;9.054;2023-01-19T07:07:25;95321.38;;;-3.36;100.00
2397;BME280;1209;48.410;9.054;2023-01-19T07:09:51;95320.72;;;-3.27;100.00
2397;BME280;1209;48.410;9.054;2023-01-19T07:12:17;95319.03;;;-3.50;100.00
2397;BME280;1209;48.410;9.054;2023-01-19T07:14:42;95319.81;;;-3.61;100.00
2397;BME280;1209;48.410;9.054;2023-01-19T07:17:08;95328.09;;;-3.46;100.00
2397;BME280;1209;48.410;9.054;2023-01-19T07:19:33;95328.66;;;-3.54;100.00
2397;BME280;1209;48.410;9.054;2023-01-19T07:22:01;95325.72;;;-3.95;100.00
2397;BME280;1209;48.410;9.054;2023-01-19T07:24:27;95329.31;;;-3.98;100.00
2397;BME280;1209;48.410;9.054;2023-01-19T07:26:54;95328.47;;;-3.74;100.00
2397;BME280;1209;48.410;9.054;2023-01-19T07:29:19;95335.81;;;-3.94;100.00
2397;BME280;1209;48.410;9.054;2023-01-19T07:31:45;95334.91;;;-4.17;100.00
2397;BME280;1209;48.410;9.054;2023-01-19T07:34:12;95336.59;;;-4.41;100.00
2397;BME280;1209;48.410;9.054;2023-01-19T07:36:38;95336.22;;;-4.48;100.00
2397;BME280;1209;48.410;9.054;2023-01-19T07:39:03;95334.19;;;-4.55;100.00
2397;BME280;1209;48.410;9.054;2023-01-19T07:41:28;95332.69;;;-4.21;100.00
2397;BME280;1209;48.410;9.054;2023-01-19T07:43:54;95325.53;;;-4.29;100.00
2397;BME280;1209;48.410;9.054;2023-01-19T07:46:19;95330.72;;;-4.18;100.00
2397;BME280;1209;48.410;9.054;2023-01-19T07:48:44;95327.38;;;-4.18;100.00
2397;BME280;1209;48.410;9.054;2023-01-19T07:51:11;95328.19;;;-4.30;100.00
2397;BME280;1209;48.410;9.054;2023-01-19T07:53:41;95325.97;;;-4.35;100.00
2397;BME280;1209;48.410;9.054;2023-01-19T07:56:07;95333.72;;;-4.24;100.00
2397;BME280;1209;48.410;9.054;2023-01-19T07:58:32;95330.25;;;-4.23;100.00
2397;BME280;1209;48.410;9.054;2023-01-19T08:00:57;95325.25;;;-4.24;100.00
2397;BME280;1209;48.410;9.054;2023-01-19T08:03:23;95327.25;;;-4.17;100.00
2397;BME280;1209;48.410;9.054;2023-01-19T08:05:49;95329.84;;;-4.05;100.00
2397;BME280;1209;48.410;9.054;2023-01-19T08:08:15;95337.16;;;-3.77;100.00
2397;BME280;1209;48.410;9.054;2023-01-19T08:10:41;95335.25;;;-3.62;100.00
2397;BME280;1209;48.410;9.054;2023-01-19T08:13:06;95334.00;;;-3.81;100.00
2397;BME280;1209;48.410;9.054;2023-01-19T08:15:32;95334.50;;;-3.99;100.00
2397;BME280;1209;48.410;9.054;2023-01-19T08:18:01;95334.88;;;-3.69;100.00
2397;BME280;1209;48.410;9.054;2023-01-19T08:20:30;95342.66;;;-3.59;100.00
2397;BME280;1209;48.410;9.054;2023-01-19T08:22:55;95349.06;;;-3.54;100.00
2397;BME280;1209;48.410;9.054;2023-01-19T08:25:30;95348.13;;;-3.53;100.00
2397;BME280;1209;48.410;9.054;2023-01-19T08:27:56;95338.25;;;-3.57;100.00
2397;BME280;1209;48.410;9.054;2023-01-19T08:30:21;95343.53;;;-3.36;100.00
2397;BME280;1209;48.410;9.054;2023-01-19T08:32:48;95335.78;;;-3.24;100.00
2397;BME280;1209;48.410;9.054;2023-01-19T08:35:14;95346.59;;;-3.20;100.00
2397;BME280;1209;48.410;9.054;2023-01-19T08:37:39;95347.31;;;-3.07;100.00
2397;BME280;1209;48.410;9.054;2023-01-19T08:40:05;95346.38;;;-2.95;100.00
2397;BME280;1209;48.410;9.054;2023-01-19T08:42:31;95339.28;;;-2.91;100.00
2397;BME280;1209;48.410;9.054;2023-01-19T08:44:56;95350.22;;;-2.78;100.00
2397;BME280;1209;48.410;9.054;2023-01-19T08:47:21;95348.94;;;-2.72;100.00
2397;BME280;1209;48.410;9.054;2023-01-19T08:49:47;95347.66;;;-2.67;100.00
2397;BME280;1209;48.410;9.054;2023-01-19T08:52:12;95345.56;;;-2.62;100.00
2397;BME280;1209;48.410;9.054;2023-01-19T08:54:37;95344.19;;;-2.55;100.00
2397;BME280;1209;48.410;9.054;2023-01-19T08:57:02;95355.44;;;-2.46;100.00
2397;BME280;1209;48.410;9.054;2023-01-19T08:59:28;95345.75;;;-2.20;100.00
2397;BME280;1209;48.410;9.054;2023-01-19T09:01:53;95346.53;;;-2.08;100.00
2397;BME280;1209;48.410;9.054;2023-01-19T09:04:18;95345.81;;;-1.99;100.00
2397;BME280;1209;48.410;9.054;2023-01-19T09:06:43;95343.75;;;-1.73;100.00
2397;BME280;1209;48.410;9.054;2023-01-19T09:09:09;95343.78;;;-1.52;100.00
2397;BME280;1209;48.410;9.054;2023-01-19T09:11:34;95351.25;;;-1.29;100.00
2397;BME280;1209;48.410;9.054;2023-01-19T09:13:59;95356.78;;;-1.23;100.00
2397;BME280;1209;48.410;9.054;2023-01-19T09:16:25;95357.72;;;-1.24;100.00
2397;BME280;1209;48.410;9.054;2023-01-19T09:18:52;95369.28;;;-1.09;100.00
2397;BME280;1209;48.410;9.054;2023-01-19T09:21:17;95372.53;;;-0.86;100.00
2397;BME280;1209;48.410;9.054;2023-01-19T09:23:43;95383.88;;;-0.79;100.00
2397;BME280;1209;48.410;9.054;2023-01-19T09:26:09;95382.19;;;-0.69;100.00
2397;BME280;1209;48.410;9.054;2023-01-19T09:28:34;95384.13;;;-0.52;100.00
2397;BME280;1209;48.410;9.054;2023-01-19T09:31:04;95385.00;;;-0.42;100.00
2397;BME280;1209;48.410;9.054;2023-01-19T09:33:30;95374.94;;;-0.54;100.00
2397;BME280;1209;48.410;9.054;2023-01-19T09:35:55;95384.25;;;-0.23;100.00
2397;BME280;1209;48.410;9.054;2023-01-19T09:38:21;95384.53;;;-0.16;100.00
2397;BME280;1209;48.410;9.054;2023-01-19T09:40:52;95381.19;;;-0.07;100.00
2397;BME280;1209;48.410;9.054;2023-01-19T09:43:47;95382.81;;;-0.06;100.00
2397;BME280;1209;48.410;9.054;2023-01-19T09:46:19;95381.72;;;-0.04;100.00
2397;BME280;1209;48.410;9.054;2023-01-19T09:48:56;95380.91;;;-0.14;100.00
2397;BME280;1209;48.410;9.054;2023-01-19T09:51:24;95379.28;;;-0.15;100.00
2397;BME280;1209;48.410;9.054;2023-01-19T09:53:56;95378.13;;;0.09;100.00
2397;BME280;1209;48.410;9.054;2023-01-19T09:56:26;95375.31;;;0.31;100.00
2397;BME280;1209;48.410;9.054;2023-01-19T09:58:53;95380.47;;;0.70;100.00
2397;BME280;1209;48.410;9.054;2023-01-19T10:06:41;95375.81;;;1.21;100.00
2397;BME280;1209;48.410;9.054;2023-01-19T10:09:13;95368.97;;;1.49;100.00
2397;BME280;1209;48.410;9.054;2023-01-19T10:11:46;95371.53;;;1.49;100.00
2397;BME280;1209;48.410;9.054;2023-01-19T10:14:40;95372.16;;;1.14;100.00
2397;BME280;1209;48.410;9.054;2023-01-19T10:19:55;95374.22;;;1.11;100.00
2397;BME280;1209;48.410;9.054;2023-01-19T10:22:24;95375.72;;;1.04;100.00
2397;BME280;1209;48.410;9.054;2023-01-19T10:24:55;95375.56;;;1.05;100.00
2397;BME280;1209;48.410;9.054;2023-01-19T10:27:29;95376.00;;;1.01;100.00
2397;BME280;1209;48.410;9.054;2023-01-19T10:29:56;95367.34;;;1.02;100.00
2397;BME280;1209;48.410;9.054;2023-01-19T10:34:48;95366.38;;;0.93;100.00
2397;BME280;1209;48.410;9.054;2023-01-19T10:39:46;95364.59;;;1.13;100.00
2397;BME280;1209;48.410;9.054;2023-01-19T10:42:16;95366.59;;;1.19;100.00
2397;BME280;1209;48.410;9.054;2023-01-19T10:44:43;95363.34;;;1.26;100.00
2397;BME280;1209;48.410;9.054;2023-01-19T10:47:16;95358.81;;;1.01;100.00
2397;BME280;1209;48.410;9.054;2023-01-19T10:49:42;95362.56;;;1.16;100.00
2397;BME280;1209;48.410;9.054;2023-01-19T10:54:43;95365.94;;;1.17;100.00
2397;BME280;1209;48.410;9.054;2023-01-19T10:57:09;95362.31;;;1.10;100.00
2397;BME280;1209;48.410;9.054;2023-01-19T11:02:18;95352.97;;;1.09;100.00
2397;BME280;1209;48.410;9.054;2023-01-19T11:04:45;95354.84;;;1.16;100.00
2397;BME280;1209;48.410;9.054;2023-01-19T11:07:35;95347.41;;;1.13;100.00
2397;BME280;1209;48.410;9.054;2023-01-19T11:12:41;95345.91;;;1.20;100.00
2397;BME280;1209;48.410;9.054;2023-01-19T11:15:18;95349.25;;;1.31;100.00
2397;BME280;1209;48.410;9.054;2023-01-19T11:17:45;95352.59;;;1.41;100.00
2397;BME280;1209;48.410;9.054;2023-01-19T11:20:48;95349.50;;;1.37;100.00
2397;BME280;1209;48.410;9.054;2023-01-19T11:23:23;95347.56;;;1.49;100.00
2397;BME280;1209;48.410;9.054;2023-01-19T11:25:52;95351.81;;;1.68;100.00
2397;BME280;1209;48.410;9.054;2023-01-19T11:28:21;95344.81;;;1.60;100.00
2397;BME280;1209;48.410;9.054;2023-01-19T11:30:58;95349.34;;;1.48;100.00
2397;BME280;1209;48.410;9.054;2023-01-19T11:33:35;95350.91;;;1.59;100.00
2397;BME280;1209;48.410;9.054;2023-01-19T11:36:24;95346.97;;;1.65;100.00
2397;BME280;1209;48.410;9.054;2023-01-19T11:38:51;95348.38;;;1.49;100.00
2397;BME280;1209;48.410;9.054;2023-01-19T11:41:40;95347.25;;;1.62;100.00
2397;BME280;1209;48.410;9.054;2023-01-19T11:44:20;95350.69;;;1.52;100.00
2397;BME280;1209;48.410;9.054;2023-01-19T11:46:49;95342.44;;;1.49;100.00
2397;BME280;1209;48.410;9.054;2023-01-19T11:49:37;95346.69;;;1.68;100.00
2397;BME280;1209;48.410;9.054;2023-01-19T11:52:23;95335.56;;;1.67;100.00
2397;BME280;1209;48.410;9.054;2023-01-19T11:57:37;95332.47;;;1.64;100.00
2397;BME280;1209;48.410;9.054;2023-01-19T12:00:18;95333.94;;;1.66;100.00
2397;BME280;1209;48.410;9.054;2023-01-19T12:02:49;95331.19;;;1.50;100.00
2397;BME280;1209;48.410;9.054;2023-01-19T12:05:18;95339.88;;;1.49;100.00
2397;BME280;1209;48.410;9.054;2023-01-19T12:07:46;95332.31;;;1.38;100.00
2397;BME280;1209;48.410;9.054;2023-01-19T12:10:33;95335.94;;;1.45;100.00
2397;BME280;1209;48.410;9.054;2023-01-19T12:13:01;95335.81;;;1.46;100.00
2397;BME280;1209;48.410;9.054;2023-01-19T12:15:31;95343.00;;;1.33;100.00
2397;BME280;1209;48.410;9.054;2023-01-19T12:18:00;95343.97;;;1.32;100.00
2397;BME280;1209;48.410;9.054;2023-01-19T12:20:37;95351.91;;;1.39;100.00
2397;BME280;1209;48.410;9.054;2023-01-19T12:23:26;95350.19;;;1.30;100.00
2397;BME280;1209;48.410;9.054;2023-01-19T12:28:49;95351.78;;;1.40;100.00
2397;BME280;1209;48.410;9.054;2023-01-19T12:31:20;95350.28;;;1.47;100.00
2397;BME280;1209;48.410;9.054;2023-01-19T12:33:46;95346.06;;;1.56;100.00
2397;BME280;1209;48.410;9.054;2023-01-19T12:38:49;95352.63;;;1.68;100.00
2397;BME280;1209;48.410;9.054;2023-01-19T12:46:49;95348.78;;;1.54;100.00
2397;BME280;1209;48.410;9.054;2023-01-19T12:49:41;95353.34;;;1.61;100.00
2397;BME280;1209;48.410;9.054;2023-01-19T12:52:31;95358.06;;;1.65;100.00
2397;BME280;1209;48.410;9.054;2023-01-19T12:55:06;95361.09;;;1.51;100.00
2397;BME280;1209;48.410;9.054;2023-01-19T13:02:47;95368.44;;;1.46;100.00
2397;BME280;1209;48.410;9.054;2023-01-19T13:05:23;95359.63;;;1.39;100.00
2397;BME280;1209;48.410;9.054;2023-01-19T13:15:52;95356.25;;;1.38;100.00
2397;BME280;1209;48.410;9.054;2023-01-19T13:18:32;95358.34;;;1.62;100.00
2397;BME280;1209;48.410;9.054;2023-01-19T13:21:04;95359.78;;;1.47;100.00
2397;BME280;1209;48.410;9.054;2023-01-19T13:26:13;95362.53;;;1.63;100.00
2397;BME280;1209;48.410;9.054;2023-01-19T13:28:42;95360.09;;;1.62;100.00
2397;BME280;1209;48.410;9.054;2023-01-19T13:31:08;95362.19;;;1.48;100.00
2397;BME280;1209;48.410;9.054;2023-01-19T13:36:21;95362.63;;;1.44;100.00
2397;BME280;1209;48.410;9.054;2023-01-19T13:38:49;95363.28;;;1.46;100.00
2397;BME280;1209;48.410;9.054;2023-01-19T13:41:17;95364.72;;;1.58;100.00
2397;BME280;1209;48.410;9.054;2023-01-19T13:43:45;95366.81;;;1.45;100.00
2397;BME280;1209;48.410;9.054;2023-01-19T13:46:12;95370.88;;;1.47;100.00
2397;BME280;1209;48.410;9.054;2023-01-19T13:48:38;95373.69;;;1.54;100.00
2397;BME280;1209;48.410;9.054;2023-01-19T13:51:06;95366.53;;;1.48;100.00
2397;BME280;1209;48.410;9.054;2023-01-19T13:53:33;95366.91;;;1.53;100.00
2397;BME280;1209;48.410;9.054;2023-01-19T13:58:42;95359.81;;;1.65;100.00
2397;BME280;1209;48.410;9.054;2023-01-19T14:01:19;95356.34;;;1.56;100.00
2397;BME280;1209;48.410;9.054;2023-01-19T14:03:45;95370.16;;;1.55;100.00
2397;BME280;1209;48.410;9.054;2023-01-19T14:06:35;95362.00;;;1.60;100.00
2397;BME280;1209;48.410;9.054;2023-01-19T14:09:28;95365.53;;;1.58;100.00
2397;BME280;1209;48.410;9.054;2023-01-19T14:12:13;95369.22;;;1.56;100.00
2397;BME280;1209;48.410;9.054;2023-01-19T14:14:42;95369.91;;;1.48;100.00
2397;BME280;1209;48.410;9.054;2023-01-19T14:17:29;95367.50;;;1.37;100.00
2397;BME280;1209;48.410;9.054;2023-01-19T14:19:56;95372.25;;;1.32;100.00
2397;BME280;1209;48.410;9.054;2023-01-19T14:22:40;95369.25;;;1.46;100.00
2397;BME280;1209;48.410;9.054;2023-01-19T14:25:34;95368.16;;;1.39;100.00
2397;BME280;1209;48.410;9.054;2023-01-19T14:31:01;95362.19;;;1.48;100.00
2397;BME280;1209;48.410;9.054;2023-01-19T14:33:35;95361.94;;;1.42;100.00
2397;BME280;1209;48.410;9.054;2023-01-19T14:36:53;95361.69;;;1.45;100.00